Main page
METAR-TAF:

METAR-TAF

Airports :

Jammu, India

Jammu Airport

latitude: 32-41-21N, longitude: 74-50-15E, elevation: 314 m

Current weather observation

The report was made 8 hours and 8 minutes ago, at 12:30 UTC
Wind 12 kt from the Northeast with gusts up to 22 kt
Temperature 30°C
Humidity 19%
Pressure 1008 hPa
Visibility: 6000 m
Scattered clouds at a height of 2500 ft
Few clouds at a height of 3000 ft, Cumulonimbus.

METAR: VIJU 301230Z 05012G22KT 6000 SCT025 FEW030CB 30/04 Q1008 TEMPO TS

Time: 02:08 (20:38 UTC)


TAF: missing

Weather observations and forecasts of more than 4000 airports (METAR and TAF reports).

The available stations are represented by yellow and red dots on the map.

Hover mouse over dot to see the name of the station.

Then click to see weather observations and forecasts.

To change the map : click on the green buttons with a black cross to zoom in, on the green button with a dash to zoom out, or on the green arrows for adjacent maps.


METAR-TAF: